Main page
METAR-TAF:

METAR-TAF

Airports :

Vodochody Airport

Prague, Czech Republic

latitude: 50-12-59N, longitude: 014-23-42E, elevation: 280 m

Current weather observation

The report was made 2 hours and 36 minutes ago, at 14:00 UTC
Wind 13 kt from the West
Temperature 7°C
Humidity 53%
Pressure 1025 hPa
Visibility 10 km or more
Few clouds at a height of 4400 ft
Broken clouds at a height of 4700 ft

METAR: LKVO 211400Z 28013KT 9999 FEW044 BKN047 07/M02 Q1025

Time: 17:36 (16:36 UTC)


TAF: missing

Weather observations and forecasts of more than 4000 airports (METAR and TAF reports).

The available stations are represented by yellow and red dots on the map.

Hover mouse over dot to see the name of the station.

Then click to see weather observations and forecasts.

To change the map : click on the green buttons with a black cross to zoom in, on the green button with a dash to zoom out, or on the green arrows for adjacent maps.


METAR-TAF: